Accueil
METAR-TAF:

METAR-TAF

Aéroports :

Vamdrup

Kolding, Danemark

latitude: 55-26N, longitude: 009-20E, altitude: 44 m

Observation

Le bulletin a été fait il y a 21 minutes, à 19:50 UTC
Vent 14 kt de est
Température 5°C
Humidité 81%
Pression 1027 hPa

METAR: EKVD 211950Z AUTO 08014KT //// ///////// 05/02 Q1027

Heure: 21:11 (20:11 UTC)

Prévision

Le bulletin a été fait il y a 8 heures et 13 minutes, à 11:58 UTC
Prévision valable du 21 à 12 UTC au 21 à 17 UTC
Vent 15 kt de est
Visibilité 10 km ou plus
Nuages fragmentés à une hauteur de 2000 ft

TAF: EKVD 211158Z 2112/2117 09015KT 9999 BKN020

Observations et prévisions météorologiques de plus de 4000 aéroports (messages METAR et TAF).

Les stations disponibles sont représentées par des disques jaunes et rouges sur la carte.

Passer la souris dessus pour voir le nom de la station.

Cliquer dessus pour voir les observations et prévisions météorologiques.

Pour changer de carte: cliquez sur les boutons verts avec une croix noire pour zoomer, sur le bouton vert avec un tiret pour effectuer un zoom arrière, ou sur les flèches vertes pour les cartes adjacentes.


METAR-TAF: